createdAt,value
2019-03-24T00:01:01.784Z,31.47
2019-03-24T00:03:33.678Z,33.50
2019-03-24T00:06:04.547Z,34.60
2019-03-24T00:08:35.245Z,37.80
2019-03-24T00:11:05.976Z,33.33
2019-03-24T00:13:36.738Z,36.93
2019-03-24T00:16:07.326Z,34.47
2019-03-24T00:18:37.999Z,27.33
2019-03-24T00:21:08.589Z,31.03
2019-03-24T00:23:39.258Z,29.93
2019-03-24T00:26:09.912Z,28.43
2019-03-24T00:28:40.597Z,25.77
2019-03-24T00:31:12.282Z,24.83
2019-03-24T00:33:43.013Z,22.37
2019-03-24T00:36:13.637Z,30.97
2019-03-24T00:38:44.379Z,29.27
2019-03-24T00:41:15.013Z,29.53
2019-03-24T00:43:45.613Z,29.60
2019-03-24T00:46:16.453Z,25.40
2019-03-24T00:48:47.113Z,30.43
2019-03-24T00:51:17.761Z,30.37
2019-03-24T00:53:48.492Z,28.13
2019-03-24T00:56:19.268Z,30.80
2019-03-24T00:58:49.982Z,30.93
2019-03-24T01:01:20.649Z,36.30
2019-03-24T01:03:51.474Z,28.47
2019-03-24T01:06:22.226Z,32.07
2019-03-24T01:08:52.969Z,37.23
2019-03-24T01:11:23.622Z,30.43
2019-03-24T01:13:54.310Z,31.90
2019-03-24T01:16:24.945Z,28.47
2019-03-24T01:18:55.621Z,25.67
2019-03-24T01:21:26.421Z,28.97
2019-03-24T01:23:57.015Z,30.33
2019-03-24T01:26:27.676Z,27.33
2019-03-24T01:28:58.301Z,35.50
2019-03-24T01:31:28.881Z,26.17
2019-03-24T01:33:59.554Z,31.43
2019-03-24T01:36:30.205Z,28.67
2019-03-24T01:39:00.901Z,31.70
2019-03-24T01:41:32.765Z,32.53
2019-03-24T01:44:03.403Z,30.20
2019-03-24T01:46:34.103Z,25.13
2019-03-24T01:49:04.910Z,26.13
2019-03-24T01:51:35.569Z,28.90
2019-03-24T01:54:06.346Z,28.27
2019-03-24T01:56:37.006Z,26.47
2019-03-24T01:59:07.738Z,33.23
2019-03-24T02:01:38.390Z,32.63
2019-03-24T02:04:09.023Z,31.80
2019-03-24T02:06:39.673Z,26.93
2019-03-24T02:09:10.933Z,30.93
2019-03-24T02:11:41.654Z,31.47
2019-03-24T02:14:12.370Z,34.37
2019-03-24T02:16:43.077Z,31.73
2019-03-24T02:19:13.774Z,32.80
2019-03-24T02:21:44.470Z,34.37
2019-03-24T02:24:15.162Z,32.13
2019-03-24T02:26:45.792Z,34.27
2019-03-24T02:29:16.378Z,37.30
2019-03-24T02:31:47.070Z,37.53
2019-03-24T02:34:17.833Z,34.90
2019-03-24T02:36:48.539Z,39.57
2019-03-24T02:39:19.131Z,36.90
2019-03-24T02:41:49.859Z,32.37
2019-03-24T02:44:20.471Z,36.73
2019-03-24T02:46:51.203Z,38.53
2019-03-24T02:49:22.058Z,38.93
2019-03-24T02:51:52.810Z,42.53
2019-03-24T02:54:23.526Z,44.23
2019-03-24T02:56:54.210Z,44.97
2019-03-24T02:59:25.017Z,45.03
2019-03-24T03:01:55.618Z,46.73
2019-03-24T03:04:26.341Z,47.37
2019-03-24T03:06:57.159Z,57.80
2019-03-24T03:09:27.937Z,49.33
2019-03-24T03:11:58.809Z,53.20
2019-03-24T03:14:29.632Z,54.57
2019-03-24T03:17:00.263Z,58.80
2019-03-24T03:19:30.926Z,54.93
2019-03-24T03:22:01.526Z,53.97
2019-03-24T03:24:32.150Z,56.33
2019-03-24T03:27:02.795Z,64.30
2019-03-24T03:29:33.456Z,57.10
2019-03-24T03:32:04.049Z,62.27
2019-03-24T03:34:34.773Z,64.40
2019-03-24T03:37:05.433Z,65.53
2019-03-24T03:39:36.137Z,63.70
2019-03-24T03:42:06.984Z,58.57
2019-03-24T03:44:37.967Z,65.43
2019-03-24T03:47:08.699Z,71.20
2019-03-24T03:49:39.455Z,68.37
2019-03-24T03:52:10.126Z,64.40
2019-03-24T03:54:40.767Z,62.10
2019-03-24T03:57:11.484Z,62.70
2019-03-24T03:59:42.313Z,75.07
2019-03-24T04:02:13.040Z,59.97
2019-03-24T04:04:43.812Z,61.70
2019-03-24T04:07:14.554Z,55.47
2019-03-24T04:09:45.441Z,66.53
2019-03-24T04:12:16.164Z,62.93
2019-03-24T04:14:46.897Z,65.73
2019-03-24T04:17:17.745Z,54.30
2019-03-24T04:19:48.476Z,63.47
2019-03-24T04:22:19.203Z,62.77
2019-03-24T04:24:49.831Z,64.10
2019-03-24T04:27:20.645Z,65.87
2019-03-24T04:29:51.401Z,63.87
2019-03-24T04:32:22.085Z,54.00
2019-03-24T04:34:52.779Z,63.63
2019-03-24T04:37:23.379Z,51.43
2019-03-24T04:39:54.002Z,55.03
2019-03-24T04:46:00.106Z,63.07
2019-03-24T04:48:30.904Z,56.60
2019-03-24T04:51:01.670Z,49.40
2019-03-24T04:53:32.299Z,57.37
2019-03-24T04:56:03.234Z,51.80
2019-03-24T04:58:33.907Z,56.43
2019-03-24T05:01:04.655Z,54.17
2019-03-24T05:03:35.309Z,54.20
2019-03-24T05:06:06.375Z,60.53
2019-03-24T05:08:37.175Z,47.73
2019-03-24T05:11:07.805Z,58.77
2019-03-24T05:13:38.453Z,51.13
2019-03-24T05:16:09.505Z,57.63
2019-03-24T05:18:40.309Z,50.43
2019-03-24T05:21:11.007Z,63.27
2019-03-24T05:23:41.737Z,55.13
2019-03-24T05:26:12.334Z,55.73
2019-03-24T05:28:43.107Z,58.97
2019-03-24T05:31:13.802Z,56.43
2019-03-24T05:33:44.507Z,56.57
2019-03-24T05:36:15.152Z,55.70
2019-03-24T05:38:45.974Z,58.17
2019-03-24T05:41:16.694Z,59.60
2019-03-24T05:43:47.444Z,56.07
2019-03-24T05:46:18.068Z,55.10
2019-03-24T05:48:48.770Z,51.30
2019-03-24T05:51:20.645Z,47.73
2019-03-24T05:53:51.370Z,46.70
2019-03-24T05:56:21.994Z,50.57
2019-03-24T05:58:52.803Z,53.83
2019-03-24T06:01:23.525Z,40.13
2019-03-24T06:03:54.104Z,50.20
2019-03-24T06:06:24.714Z,45.10
2019-03-24T06:08:55.299Z,54.90
2019-03-24T06:11:25.998Z,47.03
2019-03-24T06:13:56.594Z,43.47
2019-03-24T06:16:27.382Z,45.17
2019-03-24T06:18:57.957Z,45.03
2019-03-24T06:21:28.734Z,37.67
2019-03-24T06:23:59.383Z,39.70
2019-03-24T06:26:30.147Z,40.63
2019-03-24T06:29:00.793Z,45.70
2019-03-24T06:31:31.414Z,40.67
2019-03-24T06:34:02.085Z,44.63
2019-03-24T06:36:32.776Z,40.03
2019-03-24T06:39:04.538Z,39.33
2019-03-24T06:41:35.322Z,45.47
2019-03-24T06:44:06.175Z,32.63
2019-03-24T06:46:36.875Z,43.63
2019-03-24T06:49:07.474Z,46.37
2019-03-24T06:51:38.257Z,41.30
2019-03-24T06:54:08.901Z,38.93
2019-03-24T06:56:39.615Z,40.07
2019-03-24T06:59:10.287Z,44.07
2019-03-24T07:01:40.874Z,42.67
2019-03-24T07:04:11.606Z,36.83
2019-03-24T07:06:42.247Z,41.97
2019-03-24T07:09:12.986Z,37.70
2019-03-24T07:11:43.591Z,36.90
2019-03-24T07:14:14.185Z,37.47
2019-03-24T07:16:44.874Z,37.57
2019-03-24T07:19:15.597Z,36.00
2019-03-24T07:21:46.499Z,32.60
2019-03-24T07:24:21.434Z,33.63
2019-03-24T07:26:52.188Z,31.67
2019-03-24T07:29:22.982Z,30.37
2019-03-24T07:31:53.930Z,33.97
2019-03-24T07:34:24.571Z,34.20
2019-03-24T07:36:55.294Z,34.60
2019-03-24T07:39:26.035Z,31.37
2019-03-24T07:41:56.632Z,24.53
2019-03-24T07:44:27.253Z,30.83
2019-03-24T07:46:57.943Z,31.23
2019-03-24T07:49:28.597Z,34.57
2019-03-24T07:51:59.285Z,29.93
2019-03-24T07:54:29.917Z,32.90
2019-03-24T07:57:00.533Z,27.00
2019-03-24T07:59:31.287Z,29.77
2019-03-24T08:02:01.981Z,28.37
2019-03-24T08:04:32.929Z,29.77
2019-03-24T08:07:03.690Z,28.40
2019-03-24T08:09:34.445Z,34.53
2019-03-24T08:12:05.106Z,25.10
2019-03-24T08:14:35.852Z,29.57
2019-03-24T08:17:06.601Z,28.67
2019-03-24T08:19:37.265Z,21.93
2019-03-24T08:22:07.991Z,28.77
2019-03-24T08:24:38.668Z,26.73
2019-03-24T08:27:09.491Z,25.00
2019-03-24T08:29:40.260Z,23.77
2019-03-24T08:32:11.012Z,22.83
2019-03-24T08:34:41.745Z,25.83
2019-03-24T08:37:12.482Z,21.60
2019-03-24T08:39:43.132Z,17.50
2019-03-24T08:42:13.880Z,22.73
2019-03-24T08:44:44.529Z,25.77
2019-03-24T08:47:15.222Z,23.20
2019-03-24T08:49:45.802Z,19.37
2019-03-24T08:52:16.475Z,31.43
2019-03-24T08:54:47.246Z,21.03
2019-03-24T08:57:17.867Z,19.33
2019-03-24T08:59:48.480Z,22.47
2019-03-24T09:02:19.199Z,20.80
2019-03-24T09:04:49.965Z,21.00
2019-03-24T09:07:20.717Z,21.70
2019-03-24T09:09:51.367Z,18.53
2019-03-24T09:12:22.043Z,20.10
2019-03-24T09:14:52.745Z,19.50
2019-03-24T09:17:23.480Z,16.13
2019-03-24T09:19:54.117Z,16.17
2019-03-24T09:22:24.861Z,21.17
2019-03-24T09:24:55.623Z,14.07
2019-03-24T09:27:26.294Z,14.93
2019-03-24T09:29:57.020Z,20.50
2019-03-24T09:32:27.783Z,15.07
2019-03-24T09:34:58.528Z,18.33
2019-03-24T09:37:29.591Z,17.00
2019-03-24T09:40:00.376Z,12.57
2019-03-24T09:42:31.153Z,12.13
2019-03-24T09:45:01.811Z,16.07
2019-03-24T09:47:32.748Z,22.97
2019-03-24T09:50:03.571Z,10.13
2019-03-24T09:52:34.275Z,13.10
2019-03-24T09:55:05.322Z,17.33
2019-03-24T09:57:35.974Z,10.20
2019-03-24T10:00:07.400Z,11.43
2019-03-24T10:02:38.238Z,12.10
2019-03-24T10:05:08.996Z,12.17
2019-03-24T10:07:39.681Z,13.53
2019-03-24T10:10:11.706Z,9.53
2019-03-24T10:12:42.433Z,11.13
2019-03-24T10:15:13.231Z,14.57
2019-03-24T10:17:44.001Z,9.93
2019-03-24T10:20:15.081Z,8.57
2019-03-24T10:22:46.009Z,15.33
2019-03-24T10:25:16.666Z,15.93
2019-03-24T10:27:47.528Z,11.67
2019-03-24T10:30:18.214Z,13.30
2019-03-24T10:32:48.862Z,12.43
2019-03-24T10:35:19.633Z,15.87
2019-03-24T10:37:50.281Z,14.53
2019-03-24T10:40:28.684Z,13.53
2019-03-24T10:42:54.284Z,18.87
2019-03-24T10:45:25.068Z,18.97
2019-03-24T10:47:55.798Z,15.80
2019-03-24T10:50:26.411Z,12.20
2019-03-24T10:52:57.201Z,15.20
2019-03-24T10:55:27.838Z,12.13
2019-03-24T10:57:58.568Z,18.63
2019-03-24T11:00:41.484Z,17.90
2019-03-24T11:03:12.129Z,20.93
2019-03-24T11:05:42.801Z,15.30
2019-03-24T11:08:13.634Z,17.60
2019-03-24T11:10:44.231Z,13.30
2019-03-24T11:13:15.948Z,15.70
2019-03-24T11:15:46.693Z,20.30
2019-03-24T11:18:17.527Z,16.50
2019-03-24T11:20:48.166Z,20.33
2019-03-24T11:23:18.829Z,17.33
2019-03-24T11:25:49.582Z,16.83
2019-03-24T11:28:20.221Z,14.17
2019-03-24T11:30:50.995Z,13.83
2019-03-24T11:33:21.707Z,17.13
2019-03-24T11:35:52.337Z,19.43
2019-03-24T11:38:23.074Z,17.60
2019-03-24T11:40:53.799Z,17.17
2019-03-24T11:43:24.583Z,16.90
2019-03-24T11:45:55.256Z,17.97
2019-03-24T11:48:25.922Z,15.20
2019-03-24T11:50:56.631Z,24.17
2019-03-24T11:53:27.321Z,17.70
2019-03-24T11:55:58.041Z,18.10
2019-03-24T11:58:29.661Z,14.53
2019-03-24T12:01:00.345Z,11.97
2019-03-24T12:03:31.063Z,15.00
2019-03-24T12:06:01.882Z,18.27
2019-03-24T12:08:33.737Z,19.90
2019-03-24T12:11:04.432Z,19.17
2019-03-24T12:13:35.238Z,21.70
2019-03-24T12:16:05.867Z,16.23
2019-03-24T12:18:36.573Z,14.73
2019-03-24T12:21:07.264Z,18.63
2019-03-24T12:23:37.887Z,23.03
2019-03-24T12:26:08.467Z,15.20
2019-03-24T12:28:39.148Z,16.53
2019-03-24T12:31:10.965Z,47.23
2019-03-24T12:33:41.773Z,18.80
2019-03-24T12:36:12.508Z,26.50
2019-03-24T12:38:43.304Z,84.50
2019-03-24T12:41:14.041Z,20.60
2019-03-24T12:43:44.846Z,15.67
2019-03-24T12:46:15.658Z,17.73
2019-03-24T12:48:47.693Z,12.33
2019-03-24T12:51:18.536Z,13.40
2019-03-24T12:53:49.258Z,13.70
2019-03-24T12:56:20.086Z,12.57
2019-03-24T12:58:50.816Z,13.10
2019-03-24T13:01:21.402Z,14.80
2019-03-24T13:03:52.086Z,16.47
2019-03-24T13:06:22.830Z,15.57
2019-03-24T13:08:53.530Z,20.33
2019-03-24T13:11:24.370Z,20.80
2019-03-24T13:13:55.116Z,17.90
2019-03-24T13:16:25.888Z,12.83
2019-03-24T13:18:56.603Z,14.20
2019-03-24T13:21:27.391Z,13.37
2019-03-24T13:23:58.459Z,14.30
2019-03-24T13:26:29.115Z,18.20
2019-03-24T13:28:59.945Z,12.30
2019-03-24T13:31:30.618Z,20.37
2019-03-24T13:34:01.499Z,14.33
2019-03-24T13:36:32.174Z,19.63
2019-03-24T13:39:02.993Z,12.87
2019-03-24T13:41:35.616Z,13.50
2019-03-24T13:44:06.402Z,12.17
2019-03-24T13:46:37.163Z,18.70
2019-03-24T13:49:07.947Z,14.83
2019-03-24T13:51:38.620Z,16.20
2019-03-24T13:54:09.508Z,15.53
2019-03-24T13:56:40.209Z,18.53
2019-03-24T13:59:10.963Z,13.50
2019-03-24T14:01:41.668Z,12.33
2019-03-24T14:04:12.449Z,14.93
2019-03-24T14:06:43.049Z,14.10
2019-03-24T14:09:14.062Z,14.53
2019-03-24T14:11:44.671Z,9.27
2019-03-24T14:14:15.435Z,13.67
2019-03-24T14:16:46.723Z,21.00
2019-03-24T14:19:17.792Z,15.50
2019-03-24T14:21:48.521Z,14.10
2019-03-24T14:24:19.261Z,13.57
2019-03-24T14:26:50.192Z,15.37
2019-03-24T14:29:21.073Z,23.90
2019-03-24T14:31:51.713Z,15.13
2019-03-24T14:34:22.516Z,12.90
2019-03-24T14:36:53.239Z,8.50
2019-03-24T14:39:24.005Z,12.87
2019-03-24T14:41:54.814Z,11.63
2019-03-24T14:44:25.618Z,18.30
2019-03-24T14:46:56.381Z,15.27
2019-03-24T14:49:27.198Z,13.20
2019-03-24T14:51:58.107Z,15.03
2019-03-24T14:54:28.932Z,13.80
2019-03-24T14:56:59.598Z,10.53
2019-03-24T14:59:30.403Z,19.13
2019-03-24T15:02:01.063Z,17.97
2019-03-24T15:04:31.811Z,14.67
2019-03-24T15:07:02.579Z,9.73
2019-03-24T15:09:33.309Z,15.70
2019-03-24T15:12:04.117Z,15.20
2019-03-24T15:14:34.879Z,17.47
2019-03-24T15:17:05.697Z,15.93
2019-03-24T15:19:36.460Z,14.10
2019-03-24T15:22:07.219Z,12.73
2019-03-24T15:24:38.010Z,13.43
2019-03-24T15:27:08.758Z,19.93
2019-03-24T15:29:39.521Z,13.80
2019-03-24T15:32:10.294Z,17.60
2019-03-24T15:34:41.049Z,12.20
2019-03-24T15:37:11.810Z,14.30
2019-03-24T15:39:42.529Z,15.70
2019-03-24T15:42:15.192Z,14.13
2019-03-24T15:44:46.098Z,15.60
2019-03-24T15:47:16.786Z,15.87
2019-03-24T15:49:47.406Z,21.17
2019-03-24T15:52:18.167Z,21.70
2019-03-24T15:54:48.914Z,18.87
2019-03-24T15:57:19.512Z,19.97
2019-03-24T15:59:50.452Z,12.77
2019-03-24T16:02:21.341Z,15.23
2019-03-24T16:04:52.025Z,16.10
2019-03-24T16:07:22.725Z,16.90
2019-03-24T16:09:53.448Z,17.63
2019-03-24T16:12:24.162Z,12.70
2019-03-24T16:14:55.041Z,14.57
2019-03-24T16:17:25.744Z,17.90
2019-03-24T16:19:56.342Z,14.07
2019-03-24T16:22:27.113Z,14.37
2019-03-24T16:24:57.843Z,15.03
2019-03-24T16:27:28.480Z,11.53
2019-03-24T16:29:59.136Z,21.47
2019-03-24T16:32:29.842Z,23.77
2019-03-24T16:35:00.600Z,18.80
2019-03-24T16:37:31.314Z,24.23
2019-03-24T16:40:12.030Z,29.20
2019-03-24T16:42:42.688Z,24.10
2019-03-24T16:45:13.941Z,29.80
2019-03-24T16:47:44.719Z,31.43
2019-03-24T16:50:16.369Z,26.90
2019-03-24T16:52:47.113Z,24.37
2019-03-24T16:55:17.734Z,26.13
2019-03-24T16:57:49.848Z,27.20
2019-03-24T17:00:20.847Z,27.97
2019-03-24T17:02:51.598Z,26.10
2019-03-24T17:05:22.229Z,27.53
2019-03-24T17:07:52.992Z,23.70
2019-03-24T17:10:23.664Z,24.63
2019-03-24T17:12:54.364Z,25.43
2019-03-24T17:15:25.090Z,26.50
2019-03-24T17:17:56.479Z,24.80
2019-03-24T17:20:27.442Z,20.30
2019-03-24T17:22:58.477Z,22.57
2019-03-24T17:25:29.374Z,23.00
2019-03-24T17:28:00.198Z,23.23
2019-03-24T17:30:30.850Z,32.93
2019-03-24T17:33:01.473Z,32.40
2019-03-24T17:35:32.258Z,32.97
2019-03-24T17:38:02.909Z,25.77
2019-03-24T17:40:38.822Z,32.87
2019-03-24T17:43:06.255Z,31.83
2019-03-24T17:45:36.877Z,36.57
2019-03-24T17:48:07.646Z,44.77
2019-03-24T17:50:39.028Z,43.80
2019-03-24T17:53:09.822Z,48.37
2019-03-24T17:55:40.587Z,50.93
2019-03-24T17:58:12.572Z,49.93
2019-03-24T18:00:45.778Z,48.83
2019-03-24T18:03:16.653Z,54.27
2019-03-24T18:05:47.309Z,41.83
2019-03-24T18:08:19.134Z,50.23
2019-03-24T18:10:49.842Z,52.13
2019-03-24T18:13:20.570Z,58.57
2019-03-24T18:15:51.309Z,62.47
2019-03-24T18:18:25.042Z,57.77
2019-03-24T18:20:55.859Z,58.80
2019-03-24T18:23:26.681Z,54.97
2019-03-24T18:25:57.431Z,73.77
2019-03-24T18:28:28.133Z,75.47
2019-03-24T18:30:58.854Z,85.50
2019-03-24T18:33:29.689Z,98.93
2019-03-24T18:36:00.383Z,102.43
2019-03-24T18:38:31.337Z,95.13
2019-03-24T18:41:02.079Z,109.43
2019-03-24T18:43:32.718Z,107.30
2019-03-24T18:46:03.542Z,112.87
2019-03-24T18:48:34.464Z,106.27
2019-03-24T18:51:05.371Z,102.37
2019-03-24T18:53:36.030Z,107.17
2019-03-24T18:56:08.821Z,108.13
2019-03-24T18:58:39.796Z,109.97
2019-03-24T19:01:10.758Z,86.27
2019-03-24T19:03:41.527Z,91.83
2019-03-24T19:06:12.362Z,99.37
2019-03-24T19:08:43.151Z,99.70
2019-03-24T19:11:13.923Z,107.50
2019-03-24T19:13:44.615Z,101.00
2019-03-24T19:16:19.032Z,99.40
2019-03-24T19:18:49.765Z,106.30
2019-03-24T19:21:20.469Z,103.90
2019-03-24T19:23:51.241Z,99.93
2019-03-24T19:26:21.964Z,105.23
2019-03-24T19:28:52.667Z,101.43
2019-03-24T19:31:23.494Z,104.73
2019-03-24T19:33:54.322Z,102.87
2019-03-24T19:36:25.218Z,102.47
2019-03-24T19:38:56.426Z,99.73
2019-03-24T19:41:27.295Z,102.20
2019-03-24T19:43:58.111Z,98.83
2019-03-24T19:46:28.852Z,66.43
2019-03-24T19:48:59.520Z,64.43
2019-03-24T19:51:30.449Z,59.30
2019-03-24T19:54:01.139Z,74.77
2019-03-24T19:56:33.069Z,70.13
2019-03-24T19:59:03.842Z,65.20
2019-03-24T20:01:34.914Z,62.37
2019-03-24T20:04:05.836Z,54.40
2019-03-24T20:06:36.590Z,64.57
2019-03-24T20:09:09.366Z,59.93
2019-03-24T20:11:40.051Z,73.57
2019-03-24T20:14:10.765Z,61.53
2019-03-24T20:16:41.590Z,77.13
2019-03-24T20:19:12.271Z,81.57
2019-03-24T20:21:42.879Z,97.73
2019-03-24T20:24:13.800Z,83.30
2019-03-24T20:26:44.461Z,118.27
2019-03-24T20:29:15.124Z,125.03
2019-03-24T20:31:45.923Z,105.97
2019-03-24T20:34:16.974Z,108.83
2019-03-24T20:36:47.767Z,127.60
2019-03-24T20:39:19.542Z,219.30
2019-03-24T20:41:51.236Z,248.50
2019-03-24T20:44:22.037Z,197.17
2019-03-24T20:46:52.697Z,203.93
2019-03-24T20:49:23.382Z,182.50
2019-03-24T20:51:54.048Z,159.60
2019-03-24T20:54:24.792Z,129.50
2019-03-24T20:56:55.574Z,98.03
2019-03-24T20:59:26.394Z,82.83
2019-03-24T21:01:57.208Z,81.33
2019-03-24T21:04:27.947Z,88.87
2019-03-24T21:06:58.773Z,79.43
2019-03-24T21:09:29.501Z,75.37
2019-03-24T21:12:00.300Z,80.70
2019-03-24T21:14:30.987Z,81.03
2019-03-24T21:17:01.613Z,82.93
2019-03-24T21:19:32.223Z,75.27
2019-03-24T21:22:02.984Z,69.67
2019-03-24T21:24:33.739Z,63.73
2019-03-24T21:27:06.958Z,74.30
2019-03-24T21:29:36.790Z,69.73
2019-03-24T21:32:07.665Z,70.30
2019-03-24T21:34:38.548Z,66.93
2019-03-24T21:37:09.358Z,80.63
2019-03-24T21:39:40.180Z,79.00
2019-03-24T21:42:11.950Z,74.87
2019-03-24T21:44:42.641Z,77.23
2019-03-24T21:47:13.340Z,95.80
2019-03-24T21:49:44.046Z,85.80
2019-03-24T21:52:14.928Z,76.47
2019-03-24T21:54:46.850Z,73.77
2019-03-24T21:57:17.723Z,70.63
2019-03-24T21:59:48.671Z,69.73
2019-03-24T22:02:19.767Z,64.67
2019-03-24T22:04:50.640Z,54.93
2019-03-24T22:07:21.390Z,45.57
2019-03-24T22:09:52.253Z,49.07
2019-03-24T22:12:23.138Z,54.83
2019-03-24T22:14:56.679Z,55.77
2019-03-24T22:17:27.453Z,60.70
2019-03-24T22:19:58.266Z,54.90
2019-03-24T22:22:28.939Z,53.07
2019-03-24T22:24:59.517Z,61.67
2019-03-24T22:27:30.497Z,67.47
2019-03-24T22:30:01.707Z,69.60
2019-03-24T22:32:32.542Z,68.70
2019-03-24T22:35:03.325Z,68.47
2019-03-24T22:37:34.151Z,65.37
2019-03-24T22:40:05.622Z,67.83
2019-03-24T22:42:36.374Z,65.70
2019-03-24T22:45:08.218Z,58.03
2019-03-24T22:47:39.005Z,59.73
2019-03-24T22:50:10.110Z,64.67
2019-03-24T22:52:40.850Z,59.37
2019-03-24T22:55:11.712Z,55.90
2019-03-24T22:57:42.396Z,67.87
2019-03-24T23:00:20.896Z,65.20
2019-03-24T23:02:53.166Z,71.27
2019-03-24T23:05:23.930Z,71.27
2019-03-24T23:07:54.586Z,62.40
2019-03-24T23:10:25.318Z,59.90
2019-03-24T23:12:55.978Z,58.60
2019-03-24T23:15:26.647Z,61.70
2019-03-24T23:17:58.426Z,52.60
2019-03-24T23:20:29.062Z,56.30
2019-03-24T23:22:59.691Z,54.27
2019-03-24T23:25:30.472Z,47.33
2019-03-24T23:28:01.355Z,51.77
2019-03-24T23:30:32.049Z,54.50
2019-03-24T23:33:02.923Z,47.97
2019-03-24T23:35:33.571Z,50.43
2019-03-24T23:38:05.449Z,50.93
2019-03-24T23:40:36.059Z,54.17
2019-03-24T23:43:06.838Z,49.53
2019-03-24T23:45:37.637Z,51.10
2019-03-24T23:48:08.239Z,52.53
2019-03-24T23:50:38.805Z,49.70
2019-03-24T23:53:09.570Z,48.87
2019-03-24T23:55:40.193Z,60.27
2019-03-24T23:58:10.881Z,55.13
